Accueil
METAR-TAF:

METAR-TAF

Aéroports :

La Chaux-de-Fonds, Suisse

Aéroport régional Les Éplatures

latitude: 47-05-03N, longitude: 006-47-37E, altitude: 1027 m

Observation

Le bulletin a été fait il y a 22 minutes, à 00:20 UTC
Vent 1 kt de ouest
Température 6°C
Humidité 100%
Pression 1021 hPa
Visibilité 10 km ou plus
pas de nuages en-dessous de 1500 mètres et pas de cumulonimbus.

METAR: LSGC 240020Z AUTO 26001KT CAVOK 06/06 Q1021

Heure: 02:42 (00:42 UTC)

Prévision

Le bulletin a été fait il y a 10 heures et 17 minutes, à 14:25 UTC
Prévision valable du 23 à 15 UTC au 23 à 24 UTC
Vent 5 kt de ouest
Visibilité 10 km ou plus
Nuages fragmentés à une hauteur de 1400 ft
averses de pluie
Evoluant progressivement
du 23 à 15 UTC au 23 à 17 UTC
Nuages épars à une hauteur de 3000 ft

TAF: LSGC 231425Z 2315/2324 27005KT 9999 SHRA BKN014 BECMG 2315/2317 SCT030

Observations et prévisions météorologiques de plus de 4000 aéroports (messages METAR et TAF).

Les stations disponibles sont représentées par des disques jaunes et rouges sur la carte.

Passer la souris dessus pour voir le nom de la station.

Cliquer dessus pour voir les observations et prévisions météorologiques.

Pour changer de carte: cliquez sur les boutons verts avec une croix noire pour zoomer, sur le bouton vert avec un tiret pour effectuer un zoom arrière, ou sur les flèches vertes pour les cartes adjacentes.


METAR-TAF: